Overview Statistics Trail Chart Weather Telemetry Raw packets
 

This is the latest recevied packets stored in our database for station/object IZ4HBF-11. If no packets are shown the sender has not sent any packets the latest 24 hours.

If you compare the raw packets with similar data from other websites it may differ (especially the path), the reason is that we are not collecting packets from the same APRS-IS servers. Each APRS-IS server performes duplicate filtering, and which packet that is considered to be a duplicate may differ depending on which APRS-IS server you receive your data from.

<< 1 2 >>

1778115488: IZ4HBF-11>APRSMC,TCPIP*,qAR,T79A-10:T#143,1011.0,24.6,59.4,40,0.0,00000000

1778115488: IZ4HBF-11>APRSMC,TCPIP*,qAR,T79A-10:!4413.74N/01203.48E-LoRa#op. Giancarlo/B=100/A=000082

1778110044: IZ4HBF-11>APRSMC,TCPIP*,qAR,T79A-10:T#142,1011.1,24.5,59.8,39,0.0,00000000

1778110044: IZ4HBF-11>APRSMC,TCPIP*,qAR,T79A-10:!4413.74N/01203.48E-LoRa#op. Giancarlo/B=100/A=000082

1778104630: IZ4HBF-11>APRSMC,TCPIP*,qAR,IU4KVZ-10:T#011,1010.9,25.0,57.5,43,0.0,00000000

1778104627: IZ4HBF-11>APRSMC,TCPIP*,qAR,IU4LEG-10::IZ4HBF-11:PARM.Press,Temp.in,Hum,eGAS,Temp.out,track,-,-,-,-,-,-,-

1778104627: IZ4HBF-11>APRSMC,TCPIP*,qAR,IU4LEG-10:T#141,1010.9,25.0,57.5,43,0.0,00000000

1778104627: IZ4HBF-11>APRSMC,TCPIP*,qAR,IU4LEG-10::IZ4HBF-11:UNIT.hPa,C deg,%,-,C deg,Y/N,O/N,O/N,O/N,O/N,O/N,O/N,O/N

1778104627: IZ4HBF-11>APRSMC,TCPIP*,qAR,IU4LEG-10::IZ4HBF-11:EQNS.0,1,0,0,1,0,0,1,0,0,1,0,0,1,0

1778104627: IZ4HBF-11>APRSMC,TCPIP*,qAR,IU4LEG-10:!4413.74N/01203.48E-LoRa#op. Giancarlo/B=100/A=000082

1778091906: IZ4HBF-11>APRSMC,TCPIP*,qAR,IK4ZHC-10:T#136,1009.6,25.2,57.4,40,0.0,00000000

1778091906: IZ4HBF-11>APRSMC,TCPIP*,qAR,IK4ZHC-10:!4413.74N/01203.48E-LoRa#op. Giancarlo/B=100/A=000082

1778079264: IZ4HBF-11>APRSMC,TCPIP*,qAR,T79A-10:T#135,1008.8,25.1,54.0,46,0.0,00000000

1778079264: IZ4HBF-11>APRSMC,TCPIP*,qAR,T79A-10:!4413.74N/01203.48E-LoRa#op. Giancarlo/B=100/A=000082

1778077380: IZ4HBF-11>APRSMC,TCPIP*,qAR,IR4UBS-15:T#134,1008.1,25.1,52.7,59,0.0,00000000

1778077380: IZ4HBF-11>APRSMC,TCPIP*,qAR,IR4UBS-15:!4413.74N/01203.48E-LoRa#op. Giancarlo/B=100/A=000082

1778073783: IZ4HBF-11>APRSMC,TCPIP*,qAR,T79A-10:T#133,1008.5,25.2,52.4,69,0.0,00000000

1778073783: IZ4HBF-11>APRSMC,TCPIP*,qAR,T79A-10:!4413.74N/01203.48E-LoRa#op. Giancarlo/B=100/A=000082

1778068383: IZ4HBF-11>APRSMC,TCPIP*,qAR,IU4KVZ-10:T#010,1008.9,24.7,53.9,65,0.0,00000000

1778068383: IZ4HBF-11>APRSMC,TCPIP*,qAR,IU4KVZ-10:!4413.74N/01203.48E-LoRa#op. Giancarlo/B=100/A=000082

1778068305: IZ4HBF-11>APRSMC,TCPIP*,qAR,T79A-10:T#132,1008.9,24.7,53.9,65,0.0,00000000

1778068305: IZ4HBF-11>APRSMC,TCPIP*,qAR,T79A-10:!4413.74N/01203.48E-LoRa#op. Giancarlo/B=100/A=000082

1778062881: IZ4HBF-11>APRSMC,TCPIP*,qAR,IU4LEG-10::IZ4HBF-11:PARM.Press,Temp.in,Hum,eGAS,Temp.out,track,-,-,-,-,-,-,-

1778062881: IZ4HBF-11>APRSMC,TCPIP*,qAR,IU4LEG-10:T#131,1009.7,24.5,55.8,63,0.0,00000000

1778062881: IZ4HBF-11>APRSMC,TCPIP*,qAR,IU4LEG-10::IZ4HBF-11:EQNS.0,1,0,0,1,0,0,1,0,0,1,0,0,1,0